Time;durP1;ratioP1;P1;durP2;ratioP2;P2;SDS_P1;SDS_P2;PMS_P1;PMS_P2;Temp;Humidity;BMP_temperature;BMP_pressure;BME280_temperature;BME280_humidity;BME280_pressure;Samples;Min_cycle;Max_cycle;Signal;HPM_P1;HPM_P2
2022/12/01 00:02:28;;;;;;;16.10;8.23;;;;;;;7.22;68.83;100637.97;10433033;28;20045;-64
2022/12/01 00:07:29;;;;;;;14.60;8.45;;;;;;;7.31;68.62;100639.38;10428408;28;20040;-63
2022/12/01 00:12:31;;;;;;;16.38;8.57;;;;;;;7.24;68.75;100637.91;10428791;28;20175;-64
2022/12/01 00:17:33;;;;;;;17.40;9.07;;;;;;;7.30;68.78;100633.34;10432907;28;20497;-62
2022/12/01 00:22:34;;;;;;;16.83;9.75;;;;;;;7.36;68.64;100633.13;10435242;28;20120;-63
2022/12/01 00:27:36;;;;;;;16.85;8.95;;;;;;;7.37;68.53;100634.81;10427880;28;20056;-62
2022/12/01 00:32:38;;;;;;;18.30;9.23;;;;;;;7.31;68.65;100628.97;10430393;28;20160;-62
2022/12/01 00:37:40;;;;;;;14.57;8.70;;;;;;;7.27;68.75;100627.38;10430826;28;20048;-63
2022/12/01 00:42:41;;;;;;;12.55;6.78;;;;;;;7.31;68.52;100637.63;10431804;28;20075;-62
2022/12/01 00:47:43;;;;;;;10.73;6.20;;;;;;;7.23;68.50;100631.84;10430066;28;20045;-62
2022/12/01 00:52:44;;;;;;;14.25;7.13;;;;;;;7.24;68.52;100637.91;10438482;28;20060;-63
2022/12/01 00:57:46;;;;;;;10.95;6.68;;;;;;;7.25;68.41;100630.03;10430257;28;20041;-62
2022/12/01 01:02:47;;;;;;;11.45;6.13;;;;;;;7.31;68.22;100632.44;10432135;28;20045;-62
2022/12/01 01:07:49;;;;;;;10.38;6.00;;;;;;;7.33;68.24;100628.03;10437401;28;20060;-63
2022/12/01 01:12:51;;;;;;;11.65;5.82;;;;;;;7.29;68.00;100631.63;10435153;28;20064;-63
2022/12/01 01:17:53;;;;;;;9.70;5.85;;;;;;;7.27;68.25;100633.44;10428437;28;20049;-62
2022/12/01 01:22:54;;;;;;;11.18;5.90;;;;;;;7.28;67.98;100640.38;10439744;28;20049;-63
2022/12/01 01:27:56;;;;;;;9.23;5.35;;;;;;;7.34;67.90;100632.34;10424878;28;20757;-62
2022/12/01 01:32:58;;;;;;;11.23;5.97;;;;;;;7.37;67.78;100640.03;10430618;28;20556;-63
2022/12/01 01:37:59;;;;;;;16.25;6.85;;;;;;;7.32;67.88;100647.16;10425807;28;20500;-62
2022/12/01 01:43:01;;;;;;;14.55;7.00;;;;;;;7.24;68.10;100648.31;10427274;28;20045;-62
2022/12/01 01:48:03;;;;;;;10.75;6.32;;;;;;;7.07;68.50;100651.50;10427345;28;20580;-63
2022/12/01 01:53:09;;;;;;;15.25;6.95;;;;;;;7.08;68.77;100655.81;10428447;28;20290;-62
2022/12/01 01:58:11;;;;;;;15.55;6.43;;;;;;;7.13;68.44;100646.94;10428393;28;20041;-62
2022/12/01 02:03:17;;;;;;;17.75;6.85;;;;;;;7.12;68.61;100654.81;10432159;28;20376;-62
2022/12/01 02:08:18;;;;;;;15.00;6.55;;;;;;;7.09;68.59;100660.94;10431430;28;20508;-63
2022/12/01 02:13:35;;;;;;;13.18;6.30;;;;;;;7.10;68.85;100652.22;10429286;28;20520;-62
2022/12/01 02:18:55;;;;;;;12.23;6.88;;;;;;;7.00;69.05;100648.25;10442490;28;20049;-62
2022/12/01 02:24:00;;;;;;;14.20;6.27;;;;;;;7.13;68.85;100646.09;10427748;28;20511;-63
2022/12/01 02:29:25;;;;;;;14.02;6.35;;;;;;;7.15;69.03;100644.28;10427226;28;20509;-63
2022/12/01 02:34:42;;;;;;;21.27;7.28;;;;;;;7.20;68.72;100637.19;10424995;28;20511;-63
2022/12/01 02:40:04;;;;;;;12.75;6.32;;;;;;;7.11;69.09;100637.47;10425969;28;20044;-63
2022/12/01 02:45:13;;;;;;;13.65;7.07;;;;;;;7.22;68.85;100640.56;10425552;28;20072;-62
2022/12/01 02:50:15;;;;;;;20.00;7.60;;;;;;;7.27;68.67;100640.38;10428107;28;20053;-62
2022/12/01 02:55:17;;;;;;;14.15;7.28;;;;;;;7.34;68.82;100645.34;10424578;28;20049;-62
2022/12/01 03:00:19;;;;;;;25.15;9.07;;;;;;;7.39;68.60;100643.41;10434746;28;20549;-63
2022/12/01 03:05:45;;;;;;;21.38;9.07;;;;;;;7.26;68.71;100641.31;10431486;28;20056;-62
2022/12/01 03:10:54;;;;;;;24.52;9.40;;;;;;;7.07;69.23;100641.94;10434591;28;20049;-62
2022/12/01 03:16:14;;;;;;;17.77;8.50;;;;;;;7.03;69.59;100640.34;10433117;28;20421;-62
2022/12/01 03:21:29;;;;;;;22.20;9.38;;;;;;;6.99;69.72;100643.97;10446774;28;20103;-62
2022/12/01 03:26:35;;;;;;;23.45;10.40;;;;;;;6.99;69.75;100637.91;10433124;28;20319;-62
2022/12/01 03:31:43;;;;;;;18.20;9.27;;;;;;;6.87;70.19;100646.13;10433060;28;20056;-62
2022/12/01 03:37:03;;;;;;;23.98;9.52;;;;;;;6.95;70.32;100637.16;10440789;28;20103;-62
2022/12/01 03:42:16;;;;;;;18.75;9.45;;;;;;;7.00;70.08;100630.03;10431090;28;20150;-62
2022/12/01 03:47:21;;;;;;;23.88;9.07;;;;;;;6.90;70.35;100646.84;10434966;28;20052;-62
2022/12/01 03:52:41;;;;;;;20.00;9.50;;;;;;;6.80;70.73;100637.66;10437070;28;20045;-62
2022/12/01 03:57:55;;;;;;;19.83;8.98;;;;;;;6.85;70.36;100630.56;10437864;28;20053;-64
2022/12/01 04:03:00;;;;;;;17.60;9.23;;;;;;;6.87;70.19;100643.53;10438038;28;20412;-63
2022/12/01 04:08:02;;;;;;;19.90;11.20;;;;;;;6.86;70.07;100640.06;10431347;28;20943;-62
2022/12/01 04:13:04;;;;;;;29.65;13.88;;;;;;;6.83;70.23;100645.38;10430765;28;20161;-62
2022/12/01 04:18:06;;;;;;;21.77;12.10;;;;;;;6.86;70.00;100647.00;10439547;28;20045;-62
2022/12/01 04:23:08;;;;;;;26.90;13.20;;;;;;;6.86;70.18;100649.59;10433886;28;20064;-62
2022/12/01 04:28:10;;;;;;;30.05;15.05;;;;;;;6.90;69.90;100646.84;10436723;28;20053;-62
2022/12/01 04:33:11;;;;;;;26.13;14.40;;;;;;;6.91;69.99;100645.13;10436772;28;20053;-63
2022/12/01 04:38:13;;;;;;;26.13;14.02;;;;;;;6.90;70.00;100649.47;10430812;28;20059;-62
2022/12/01 04:43:14;;;;;;;38.20;16.80;;;;;;;6.94;70.08;100651.06;10429790;28;20474;-62
2022/12/01 04:48:16;;;;;;;48.55;17.85;;;;;;;7.01;69.96;100647.34;10436336;28;20503;-62
2022/12/01 04:53:18;;;;;;;30.52;16.02;;;;;;;7.06;69.82;100650.63;10429477;28;20049;-62
2022/12/01 04:58:19;;;;;;;44.33;21.65;;;;;;;6.97;69.74;100655.31;10441392;28;20143;-62
2022/12/01 05:03:21;;;;;;;37.03;21.50;;;;;;;6.83;69.90;100655.78;10430474;28;20662;-62
2022/12/01 05:08:22;;;;;;;49.08;26.55;;;;;;;6.85;69.88;100655.72;10427376;28;20053;-62
2022/12/01 05:13:24;;;;;;;54.10;25.88;;;;;;;6.79;69.75;100661.97;10410617;28;20452;-62
2022/12/01 05:18:26;;;;;;;41.00;25.08;;;;;;;6.74;69.93;100663.00;10429452;28;20044;-62
2022/12/01 05:23:30;;;;;;;68.80;30.80;;;;;;;6.84;69.82;100661.81;10428784;28;20041;-62
2022/12/01 05:28:32;;;;;;;54.03;28.13;;;;;;;6.85;69.82;100666.97;10440503;28;20052;-62
2022/12/01 05:33:33;;;;;;;54.92;29.77;;;;;;;6.89;69.65;100670.31;10434818;28;20053;-62
2022/12/01 05:38:35;;;;;;;44.33;26.35;;;;;;;6.77;69.59;100670.72;10426803;28;20052;-62
2022/12/01 05:43:37;;;;;;;39.80;26.13;;;;;;;6.69;69.38;100664.91;10426401;28;20045;-62
2022/12/01 05:48:38;;;;;;;51.72;29.98;;;;;;;6.71;69.54;100663.97;10429213;28;20417;-62
2022/12/01 05:53:40;;;;;;;71.90;34.67;;;;;;;6.82;69.40;100659.25;10435570;28;20071;-62
2022/12/01 05:58:42;;;;;;;59.15;31.35;;;;;;;6.82;69.30;100664.47;10427953;28;20045;-62
2022/12/01 06:03:43;;;;;;;57.88;31.95;;;;;;;6.83;69.51;100663.56;10428883;28;20055;-62
2022/12/01 06:08:45;;;;;;;52.83;29.65;;;;;;;6.78;69.38;100669.81;10426906;28;20060;-63
2022/12/01 06:13:46;;;;;;;62.33;33.13;;;;;;;6.73;69.42;100669.13;10426052;28;20060;-62
2022/12/01 06:18:48;;;;;;;52.15;29.58;;;;;;;6.67;69.20;100672.78;10425100;28;20060;-62
2022/12/01 06:23:50;;;;;;;58.88;33.30;;;;;;;6.68;69.41;100673.59;10441901;28;20056;-62
2022/12/01 06:28:51;;;;;;;53.78;30.15;;;;;;;6.60;69.52;100680.78;10426851;28;20312;-62
2022/12/01 06:33:53;;;;;;;63.05;33.20;;;;;;;6.60;69.69;100675.59;10425814;28;20413;-62
2022/12/01 06:38:54;;;;;;;69.10;35.15;;;;;;;6.54;69.64;100684.44;10427105;28;20041;-62
2022/12/01 06:43:56;;;;;;;65.15;33.33;;;;;;;6.53;69.65;100690.53;10428679;28;20131;-62
2022/12/01 06:48:58;;;;;;;67.72;34.22;;;;;;;6.56;69.57;100694.78;10424608;28;20520;-62
2022/12/01 06:53:59;;;;;;;70.13;34.95;;;;;;;6.42;69.62;100709.94;10419590;28;20659;-63
2022/12/01 06:59:06;;;;;;;80.82;37.17;;;;;;;6.42;69.53;100717.75;10431554;28;20052;-63
2022/12/01 07:04:08;;;;;;;70.03;35.20;;;;;;;6.39;69.62;100715.25;10425616;28;20052;-63
2022/12/01 07:09:10;;;;;;;89.80;39.92;;;;;;;6.50;69.61;100714.03;10425149;28;20052;-62
2022/12/01 07:14:25;;;;;;;82.82;38.05;;;;;;;6.41;69.30;100721.25;10432086;28;20512;-62
2022/12/01 07:19:27;;;;;;;69.22;36.55;;;;;;;6.40;69.19;100735.13;10427837;28;20434;-62
2022/12/01 07:24:29;;;;;;;66.22;35.33;;;;;;;6.23;69.50;100731.25;10422903;28;20076;-63
2022/12/01 07:29:31;;;;;;;79.78;37.92;;;;;;;6.22;69.40;100733.91;10430087;28;20055;-65
2022/12/01 07:34:32;;;;;;;82.25;38.78;;;;;;;6.32;69.43;100737.97;10430830;28;20544;-62
2022/12/01 07:39:34;;;;;;;70.13;35.45;;;;;;;6.27;69.24;100739.81;10430024;28;20053;-64
2022/12/01 07:44:36;;;;;;;92.97;40.47;;;;;;;5.93;69.90;100744.25;10430954;28;20053;-63
2022/12/01 07:49:37;;;;;;;77.35;36.63;;;;;;;5.84;69.91;100747.94;10431831;28;20489;-64
2022/12/01 07:54:39;;;;;;;80.72;38.60;;;;;;;5.97;69.87;100757.13;10432148;28;20053;-63
2022/12/01 07:59:41;;;;;;;82.43;38.35;;;;;;;5.97;69.54;100754.53;10440870;28;20052;-72
2022/12/01 08:04:42;;;;;;;75.38;37.83;;;;;;;6.09;69.23;100756.78;10431918;28;20412;-73
2022/12/01 08:09:44;;;;;;;75.70;37.50;;;;;;;6.00;69.25;100757.00;10446014;28;20049;-73
2022/12/01 08:14:46;;;;;;;80.30;37.65;;;;;;;5.98;69.18;100764.00;10473055;28;20485;-73
2022/12/01 08:19:47;;;;;;;79.85;36.92;;;;;;;5.84;69.31;100770.50;10445353;28;20552;-72
2022/12/01 08:24:49;;;;;;;80.50;38.72;;;;;;;5.70;69.80;100777.75;10472191;28;20087;-72
2022/12/01 08:29:51;;;;;;;84.47;39.40;;;;;;;5.72;69.84;100781.16;10443511;28;20417;-72
2022/12/01 08:34:52;;;;;;;87.53;38.80;;;;;;;5.81;69.62;100774.00;10449026;28;20051;-73
2022/12/01 08:39:54;;;;;;;72.68;33.42;;;;;;;5.86;69.27;100779.09;10470677;28;21004;-72
2022/12/01 08:44:56;;;;;;;72.05;34.53;;;;;;;5.87;69.53;100775.56;10448202;28;20061;-72
2022/12/01 08:49:57;;;;;;;86.40;38.30;;;;;;;5.95;69.42;100784.88;10430649;28;20057;-71
2022/12/01 08:55:00;;;;;;;103.18;38.63;;;;;;;5.78;69.52;100784.47;10440442;28;20247;-71
2022/12/01 09:00:02;;;;;;;80.53;35.97;;;;;;;5.91;69.92;100779.78;10430300;28;20044;-71
2022/12/01 09:05:04;;;;;;;84.93;37.15;;;;;;;5.96;69.23;100775.34;10480357;28;20048;-71
2022/12/01 09:10:06;;;;;;;95.53;37.55;;;;;;;5.92;69.59;100794.50;10470491;28;20049;-71
2022/12/01 09:15:08;;;;;;;69.30;33.88;;;;;;;5.88;69.35;100785.09;10447370;28;20410;-71
2022/12/01 09:20:10;;;;;;;87.13;35.50;;;;;;;5.90;69.29;100786.72;10470544;28;20048;-71
2022/12/01 09:25:13;;;;;;;81.07;35.38;;;;;;;5.90;69.54;100786.72;10429892;28;20041;-70
2022/12/01 09:30:15;;;;;;;63.05;31.63;;;;;;;5.78;69.45;100794.84;10427879;28;20075;-71
2022/12/01 09:35:16;;;;;;;75.07;33.15;;;;;;;5.70;69.73;100788.13;10439568;28;20052;-71
2022/12/01 09:40:47;;;;;;;70.78;34.28;;;;;;;5.87;69.47;100789.41;10451069;28;20339;-70
2022/12/01 09:46:01;;;;;;;62.88;31.58;;;;;;;6.00;69.48;100797.72;10435646;28;20052;-72
2022/12/01 09:51:03;;;;;;;60.58;31.02;;;;;;;6.06;68.79;100793.19;10425878;28;20160;-71
2022/12/01 09:56:05;;;;;;;56.78;29.05;;;;;;;5.87;68.65;100802.41;10426675;28;20305;-72
2022/12/01 10:01:16;;;;;;;55.50;29.33;;;;;;;5.95;69.03;100800.44;10440081;28;20045;-72
2022/12/01 10:06:44;;;;;;;53.13;28.73;;;;;;;6.25;68.39;100788.38;10431990;28;20056;-72
2022/12/01 10:11:47;;;;;;;52.63;28.33;;;;;;;6.31;67.74;100791.66;10429194;28;20063;-72
2022/12/01 10:16:57;;;;;;;52.88;28.58;;;;;;;6.50;67.65;100786.78;10426018;28;20490;-72
2022/12/01 10:22:34;;;;;;;49.10;27.90;;;;;;;6.41;67.48;100783.59;10441786;28;20055;-71
2022/12/01 10:28:13;;;;;;;53.05;27.38;;;;;;;6.48;66.84;100772.97;10418599;28;21043;-71
2022/12/01 10:33:24;;;;;;;49.10;27.95;;;;;;;6.45;66.68;100777.44;10431426;28;20056;-72
2022/12/01 10:38:31;;;;;;;47.07;26.70;;;;;;;6.27;67.01;100777.06;10426307;28;20045;-71
2022/12/01 10:43:44;;;;;;;50.40;27.30;;;;;;;6.28;66.58;100763.19;10427799;28;20045;-72
2022/12/01 10:48:57;;;;;;;48.88;27.25;;;;;;;6.48;66.24;100760.00;10443029;28;20239;-71
2022/12/01 10:54:07;;;;;;;45.63;26.02;;;;;;;6.48;65.33;100760.00;10446798;28;20517;-71
2022/12/01 10:59:34;;;;;;;44.72;26.85;;;;;;;6.31;65.45;100757.88;10466357;28;20088;-71
2022/12/01 11:04:46;;;;;;;46.30;27.00;;;;;;;6.28;65.30;100751.94;10432481;28;20171;-71
2022/12/01 11:10:15;;;;;;;48.03;27.38;;;;;;;6.32;65.35;100743.16;10432443;28;20049;-70
2022/12/01 11:15:30;;;;;;;48.83;27.58;;;;;;;6.47;64.92;100744.47;10434446;28;20211;-71
2022/12/01 11:20:37;;;;;;;44.13;27.98;;;;;;;6.45;64.84;100751.44;10474578;28;20052;-72
2022/12/01 11:25:38;;;;;;;49.47;29.63;;;;;;;6.57;65.00;100738.06;10434373;28;20405;-71
2022/12/01 11:30:40;;;;;;;44.80;26.60;;;;;;;6.55;64.04;100742.47;10472412;28;20064;-71
2022/12/01 11:35:48;;;;;;;39.85;25.13;;;;;;;6.33;63.09;100735.31;10451365;28;20401;-72
2022/12/01 11:40:56;;;;;;;44.17;27.58;;;;;;;6.35;63.42;100735.25;10473095;28;20131;-71
2022/12/01 11:46:05;;;;;;;41.03;26.60;;;;;;;6.56;62.45;100737.22;10456347;28;20044;-71
2022/12/01 11:51:14;;;;;;;41.78;26.80;;;;;;;6.47;63.07;100737.47;10452561;28;20186;-71
2022/12/01 11:56:27;;;;;;;40.13;25.50;;;;;;;6.48;62.01;100728.81;10424110;28;20053;-71
2022/12/01 12:01:44;;;;;;;41.10;26.33;;;;;;;6.51;61.70;100727.88;10428469;28;20053;-71
2022/12/01 12:07:04;;;;;;;39.60;24.95;;;;;;;6.49;61.17;100729.66;10435120;28;20040;-71
2022/12/01 12:12:08;;;;;;;41.63;26.25;;;;;;;6.65;61.71;100734.34;10429780;28;20052;-72
2022/12/01 12:17:32;;;;;;;37.78;25.20;;;;;;;6.26;60.12;100732.94;10428055;28;20559;-71
2022/12/01 12:22:48;;;;;;;38.72;24.30;;;;;;;6.17;60.91;100730.56;10437441;28;20056;-71
2022/12/01 12:28:09;;;;;;;38.05;25.02;;;;;;;6.19;60.50;100721.00;10429749;28;20524;-71
2022/12/01 12:33:17;;;;;;;41.10;25.02;;;;;;;6.22;61.57;100724.38;10430490;28;20069;-71
2022/12/01 12:38:30;;;;;;;37.70;25.10;;;;;;;6.22;60.87;100721.78;10431917;28;20489;-71
2022/12/01 12:44:01;;;;;;;37.60;24.45;;;;;;;6.31;60.10;100715.47;10432687;28;20068;-70
2022/12/01 12:49:09;;;;;;;41.50;26.02;;;;;;;6.36;61.83;100718.78;10429384;28;20064;-71
2022/12/01 12:54:53;;;;;;;40.92;25.13;;;;;;;6.20;60.24;100709.72;10429354;28;20481;-71
2022/12/01 13:00:17;;;;;;;42.92;25.48;;;;;;;6.06;60.89;100710.09;10431656;28;20102;-71
2022/12/01 13:05:22;;;;;;;38.92;23.77;;;;;;;6.02;61.20;100708.50;10427054;28;20053;-72
2022/12/01 13:10:24;;;;;;;39.80;23.50;;;;;;;6.18;61.35;100708.91;10428003;28;20049;-72
2022/12/01 13:15:28;;;;;;;38.22;23.50;;;;;;;6.35;60.57;100704.94;10428000;28;20084;-72
2022/12/01 13:20:33;;;;;;;31.17;21.00;;;;;;;6.27;59.96;100701.72;10432424;28;20520;-71
2022/12/01 13:25:39;;;;;;;36.63;22.30;;;;;;;6.26;60.64;100702.63;10425955;28;20045;-71
2022/12/01 13:30:59;;;;;;;35.88;21.40;;;;;;;5.86;59.45;100696.84;10427275;28;20080;-70
2022/12/01 13:36:07;;;;;;;38.78;22.25;;;;;;;5.74;60.48;100702.38;10427335;28;20063;-71
2022/12/01 13:41:37;;;;;;;30.17;19.55;;;;;;;5.91;60.15;100689.78;10436903;28;20512;-71
2022/12/01 13:46:41;;;;;;;32.88;19.50;;;;;;;5.82;60.06;100695.22;10434827;28;20049;-71
2022/12/01 13:52:15;;;;;;;32.30;21.13;;;;;;;5.77;59.97;100694.53;10427079;28;20578;-71
2022/12/01 13:57:26;;;;;;;24.90;16.88;;;;;;;5.51;58.39;100702.19;10424032;28;20428;-71
2022/12/01 14:02:33;;;;;;;29.73;19.60;;;;;;;5.57;60.58;100690.78;10422806;28;20469;-72
2022/12/01 14:07:38;;;;;;;30.20;20.08;;;;;;;5.52;60.29;100690.91;10423719;28;20404;-72
2022/12/01 14:12:44;;;;;;;31.90;20.42;;;;;;;5.41;60.67;100685.16;10444045;28;20056;-72
2022/12/01 14:17:57;;;;;;;32.63;19.77;;;;;;;5.25;61.25;100689.03;10427694;28;20665;-72
2022/12/01 14:23:20;;;;;;;30.75;20.50;;;;;;;5.40;60.90;100686.03;10427374;28;20049;-71
2022/12/01 14:28:59;;;;;;;30.95;19.95;;;;;;;5.29;60.77;100695.81;10440670;28;20052;-72
2022/12/01 14:34:07;;;;;;;29.75;19.95;;;;;;;5.37;61.09;100697.34;10433376;28;20287;-71
2022/12/01 14:39:13;;;;;;;28.95;19.42;;;;;;;5.32;60.66;100700.94;10418853;28;20048;-72
2022/12/01 14:44:30;;;;;;;30.17;19.50;;;;;;;5.30;61.05;100698.41;10436336;28;20045;-72
2022/12/01 14:49:38;;;;;;;30.30;19.67;;;;;;;5.27;60.71;100695.00;10423092;28;20053;-73
2022/12/01 14:54:47;;;;;;;30.23;19.35;;;;;;;5.39;60.48;100695.56;10428853;28;20186;-73
2022/12/01 15:00:21;;;;;;;31.58;19.10;;;;;;;5.18;59.80;100692.69;10425039;28;20243;-72
2022/12/01 15:05:29;;;;;;;31.35;19.75;;;;;;;5.18;61.28;100696.13;10428296;28;20053;-72
2022/12/01 15:10:35;;;;;;;31.83;20.08;;;;;;;5.05;61.28;100688.69;10438892;28;20052;-71
2022/12/01 15:15:49;;;;;;;29.60;19.63;;;;;;;5.05;61.10;100680.91;10426453;28;20052;-71
2022/12/01 15:20:58;;;;;;;27.92;18.65;;;;;;;5.09;61.96;100695.50;10428615;28;20067;-71
2022/12/01 15:26:00;;;;;;;30.13;20.10;;;;;;;5.24;61.51;100695.97;10425684;28;20045;-71
2022/12/01 15:31:10;;;;;;;30.92;19.70;;;;;;;5.31;61.57;100694.06;10425623;28;20056;-71
2022/12/01 15:36:12;;;;;;;28.63;18.80;;;;;;;5.26;60.81;100703.72;10426996;28;20489;-71
2022/12/01 15:41:20;;;;;;;30.05;18.83;;;;;;;5.21;61.41;100701.22;10426043;28;20045;-71
2022/12/01 15:46:33;;;;;;;26.02;17.25;;;;;;;5.11;60.59;100693.72;10425671;28;20053;-73
2022/12/01 15:51:35;;;;;;;27.45;17.42;;;;;;;5.17;61.11;100694.41;10431735;28;20382;-72
2022/12/01 15:56:39;;;;;;;27.85;17.92;;;;;;;5.26;60.55;100703.72;10433413;28;20057;-72
2022/12/01 16:01:42;;;;;;;29.05;17.98;;;;;;;5.08;60.83;100706.78;10434501;28;20044;-64
2022/12/01 16:07:06;;;;;;;26.40;17.55;;;;;;;5.03;60.89;100706.00;10430109;28;20052;-64
2022/12/01 16:12:08;;;;;;;30.83;18.33;;;;;;;5.10;61.30;100710.19;10430321;28;20528;-64
2022/12/01 16:17:10;;;;;;;28.55;18.85;;;;;;;4.96;60.97;100720.03;10430288;28;20319;-65
2022/12/01 16:22:12;;;;;;;28.95;18.90;;;;;;;4.81;61.29;100715.22;10436944;28;20049;-64
2022/12/01 16:27:24;;;;;;;32.50;19.70;;;;;;;4.76;61.24;100728.25;10430667;28;20167;-65
2022/12/01 16:32:37;;;;;;;;;;;;;;;4.49;61.68;100734.09;10431835;28;20092;-64
2022/12/01 16:37:41;;;;;;;34.25;20.23;;;;;;;4.68;61.55;100738.81;10428443;28;20141;-65
2022/12/01 16:42:43;;;;;;;33.70;20.17;;;;;;;4.51;61.69;100743.53;10427126;28;20497;-64
2022/12/01 16:47:48;;;;;;;32.72;20.30;;;;;;;4.56;61.77;100738.22;10431268;28;20056;-65
2022/12/01 16:52:50;;;;;;;34.28;20.60;;;;;;;4.78;61.78;100741.22;10434123;28;20041;-65
2022/12/01 16:57:51;;;;;;;35.83;20.38;;;;;;;4.92;61.97;100737.41;10426043;28;20053;-65
2022/12/01 17:02:53;;;;;;;30.65;19.02;;;;;;;4.85;61.20;100722.03;10423820;28;20276;-65
2022/12/01 17:07:55;;;;;;;26.85;17.40;;;;;;;4.81;61.07;100722.97;10431239;28;20053;-65
2022/12/01 17:12:57;;;;;;;28.58;17.90;;;;;;;4.74;61.55;100726.63;10423836;28;20049;-65
2022/12/01 17:17:59;;;;;;;29.33;18.65;;;;;;;4.81;61.44;100726.44;10427560;28;20443;-64
2022/12/01 17:23:01;;;;;;;30.73;18.73;;;;;;;4.79;61.41;100727.34;10427236;28;20053;-65
2022/12/01 17:28:03;;;;;;;28.23;17.88;;;;;;;4.85;61.50;100722.03;10429610;28;20048;-65
2022/12/01 17:33:04;;;;;;;29.45;18.25;;;;;;;4.91;61.55;100727.91;10437420;28;20397;-65
2022/12/01 17:38:06;;;;;;;25.85;17.08;;;;;;;4.65;61.35;100731.13;10425703;28;20062;-65
2022/12/01 17:43:08;;;;;;;25.90;16.88;;;;;;;4.56;61.19;100726.16;10424317;28;20495;-65
2022/12/01 17:48:10;;;;;;;23.95;15.30;;;;;;;4.57;61.39;100727.88;10426382;28;20052;-65
2022/12/01 17:53:11;;;;;;;25.77;16.65;;;;;;;4.51;61.44;100740.09;10430102;28;20052;-65
2022/12/01 17:58:13;;;;;;;26.02;16.50;;;;;;;4.47;61.50;100741.06;10434910;28;20048;-66
2022/12/01 18:03:15;;;;;;;25.17;16.42;;;;;;;4.36;61.86;100736.09;10425513;28;20057;-65
2022/12/01 18:08:16;;;;;;;23.55;16.13;;;;;;;4.40;61.41;100740.31;10434254;28;20045;-65
2022/12/01 18:13:19;;;;;;;24.58;16.17;;;;;;;4.53;61.28;100740.91;10423980;28;20469;-65
2022/12/01 18:18:23;;;;;;;23.10;15.35;;;;;;;4.49;61.51;100739.28;10437993;28;20060;-65
2022/12/01 18:23:25;;;;;;;23.73;16.13;;;;;;;4.36;60.85;100738.69;10427912;28;20057;-65
2022/12/01 18:28:27;;;;;;;23.63;16.30;;;;;;;4.39;61.16;100735.19;10426955;28;20045;-65
2022/12/01 18:33:31;;;;;;;25.95;16.10;;;;;;;4.46;61.30;100736.75;10425807;28;20041;-65
2022/12/01 18:38:34;;;;;;;23.63;15.82;;;;;;;4.54;60.51;100740.00;10430623;28;20320;-65
2022/12/01 18:43:36;;;;;;;26.25;16.35;;;;;;;4.55;60.61;100747.78;10425097;28;20485;-65
2022/12/01 18:48:43;;;;;;;24.88;16.15;;;;;;;4.61;60.66;100744.19;10424061;28;20041;-65
2022/12/01 18:53:46;;;;;;;26.40;17.40;;;;;;;4.72;60.48;100745.63;10430026;28;20484;-63
2022/12/01 18:58:56;;;;;;;26.58;17.10;;;;;;;4.66;60.60;100743.19;10424837;28;20056;-67
2022/12/01 19:03:58;;;;;;;27.30;17.20;;;;;;;4.53;60.78;100736.59;10429593;28;20432;-66
2022/12/01 19:09:02;;;;;;;25.75;17.27;;;;;;;4.67;60.79;100736.28;10425371;28;20048;-66
2022/12/01 19:14:04;;;;;;;28.48;17.65;;;;;;;4.73;60.82;100728.34;10428696;28;20053;-66
2022/12/01 19:19:08;;;;;;;26.75;17.92;;;;;;;4.79;61.27;100720.44;10426302;28;20059;-66
2022/12/01 19:24:12;;;;;;;25.75;16.75;;;;;;;4.88;60.58;100719.38;10431464;28;20484;-64
2022/12/01 19:29:16;;;;;;;26.08;17.33;;;;;;;4.81;60.95;100707.44;10431161;28;20147;-64
2022/12/01 19:34:17;;;;;;;25.45;17.08;;;;;;;4.83;60.76;100713.44;10440879;28;20056;-67
2022/12/01 19:39:19;;;;;;;27.10;16.90;;;;;;;4.71;60.50;100709.41;10440971;28;20052;-64
2022/12/01 19:44:21;;;;;;;26.27;16.83;;;;;;;4.70;60.98;100705.09;10430881;28;20799;-63
2022/12/01 19:49:22;;;;;;;26.20;16.60;;;;;;;4.77;60.75;100704.06;10433108;28;20048;-63
2022/12/01 19:54:24;;;;;;;28.15;17.08;;;;;;;4.72;60.98;100705.91;10432662;28;20071;-66
2022/12/01 19:59:26;;;;;;;26.58;17.15;;;;;;;4.70;61.01;100698.19;10442244;28;20481;-67
2022/12/01 20:04:27;;;;;;;26.98;17.20;;;;;;;4.60;60.94;100693.25;10435687;28;20056;-65
2022/12/01 20:09:29;;;;;;;25.98;17.05;;;;;;;4.68;60.76;100699.94;10433576;28;20676;-63
2022/12/01 20:14:30;;;;;;;27.88;18.10;;;;;;;4.59;60.92;100692.41;10430971;28;20049;-64
2022/12/01 20:19:32;;;;;;;27.15;17.80;;;;;;;4.72;60.96;100686.03;10432911;28;20282;-64
2022/12/01 20:24:38;;;;;;;28.88;18.40;;;;;;;4.76;60.74;100683.38;10423211;28;20266;-65
2022/12/01 20:29:40;;;;;;;30.00;18.23;;;;;;;4.85;60.85;100690.91;10440464;28;20053;-64
2022/12/01 20:34:41;;;;;;;30.08;19.30;;;;;;;4.82;60.94;100691.00;10436583;28;20838;-64
2022/12/01 20:39:43;;;;;;;32.72;19.27;;;;;;;4.78;60.75;100695.38;10429947;28;20056;-63
2022/12/01 20:44:45;;;;;;;28.77;19.02;;;;;;;4.75;60.72;100690.31;10438508;28;20045;-64
2022/12/01 20:49:47;;;;;;;29.55;18.52;;;;;;;4.76;61.20;100696.34;10435944;28;20045;-64
2022/12/01 20:54:48;;;;;;;30.20;18.95;;;;;;;4.75;61.24;100687.72;10429159;28;20048;-64
2022/12/01 20:59:50;;;;;;;32.00;19.33;;;;;;;4.84;61.04;100692.66;10437136;28;20041;-64
2022/12/01 21:04:52;;;;;;;31.77;20.20;;;;;;;4.74;60.69;100688.59;10424316;28;20921;-64
2022/12/01 21:09:59;;;;;;;34.50;20.60;;;;;;;4.80;60.59;100690.19;10437325;28;20056;-64
2022/12/01 21:15:04;;;;;;;32.90;20.40;;;;;;;4.76;60.49;100686.81;10430110;28;20060;-64
2022/12/01 21:20:10;;;;;;;31.08;20.00;;;;;;;4.65;60.80;100681.03;10427386;28;20044;-64
2022/12/01 21:25:17;;;;;;;34.35;20.40;;;;;;;4.75;60.78;100677.34;10428686;28;20071;-64
2022/12/01 21:30:28;;;;;;;33.05;19.90;;;;;;;4.70;60.80;100674.84;10427253;28;20056;-65
2022/12/01 21:35:30;;;;;;;32.97;19.10;;;;;;;4.72;60.81;100679.16;10426668;28;20060;-65
2022/12/01 21:40:32;;;;;;;31.60;19.58;;;;;;;4.76;60.82;100676.44;10427178;28;20056;-65
2022/12/01 21:45:34;;;;;;;32.40;21.02;;;;;;;4.81;60.78;100676.34;10428882;28;20356;-65
2022/12/01 21:50:36;;;;;;;33.28;21.48;;;;;;;4.87;60.70;100679.63;10427202;28;20178;-65
2022/12/01 21:55:39;;;;;;;33.97;21.60;;;;;;;4.72;60.89;100670.50;10440287;28;20059;-65
2022/12/01 22:00:41;;;;;;;36.67;21.45;;;;;;;4.65;61.09;100675.88;10427763;28;21962;-65
2022/12/01 22:05:46;;;;;;;39.55;21.85;;;;;;;4.70;61.03;100674.00;10427934;28;20571;-65
2022/12/01 22:11:19;;;;;;;40.75;22.65;;;;;;;4.72;60.93;100673.97;10437543;28;20519;-65
2022/12/01 22:16:28;;;;;;;35.60;21.23;;;;;;;4.68;60.87;100674.03;10435572;28;20045;-65
2022/12/01 22:21:31;;;;;;;37.30;21.70;;;;;;;4.70;60.81;100666.22;10432723;28;20488;-65
2022/12/01 22:26:36;;;;;;;35.38;21.60;;;;;;;4.68;60.97;100666.28;10432823;28;20052;-65
2022/12/01 22:31:38;;;;;;;37.35;22.30;;;;;;;4.39;61.41;100671.28;10431334;28;20087;-65
2022/12/01 22:36:40;;;;;;;38.83;22.20;;;;;;;4.49;61.49;100666.75;10436026;28;20327;-65
2022/12/01 22:41:43;;;;;;;41.03;23.85;;;;;;;4.62;61.18;100655.19;10425344;28;20056;-65
2022/12/01 22:46:44;;;;;;;40.00;23.83;;;;;;;4.69;61.08;100654.19;10426002;28;20398;-64
2022/12/01 22:51:50;;;;;;;36.65;22.70;;;;;;;4.78;61.31;100660.88;10432901;28;20049;-65
2022/12/01 22:57:19;;;;;;;40.10;21.80;;;;;;;4.81;60.89;100658.19;10427892;28;20053;-65
2022/12/01 23:02:27;;;;;;;41.38;22.23;;;;;;;4.76;61.06;100652.28;10436433;28;20404;-65
2022/12/01 23:07:34;;;;;;;42.90;24.15;;;;;;;4.76;60.82;100653.13;10443891;28;20145;-64
2022/12/01 23:12:37;;;;;;;43.97;24.48;;;;;;;4.78;61.18;100648.75;10434568;28;20138;-64
2022/12/01 23:17:39;;;;;;;43.58;24.05;;;;;;;4.86;61.04;100638.22;10433687;28;20064;-65